createdAt,value
2023-01-06T00:01:21.242Z,101146.59
2023-01-06T00:06:19.222Z,101132.72
2023-01-06T00:11:16.132Z,101161.03
2023-01-06T00:16:14.385Z,101129.03
2023-01-06T00:21:13.789Z,101181.53
2023-01-06T00:26:11.284Z,101154.34
2023-01-06T00:31:10.094Z,101151.06
2023-01-06T00:36:08.776Z,101187.28
2023-01-06T00:41:27.819Z,101129.38
2023-01-06T00:46:28.208Z,101191.81
2023-01-06T00:51:25.238Z,101168.13
2023-01-06T00:56:22.658Z,101183.69
2023-01-06T01:01:19.595Z,101193.38
2023-01-06T01:06:16.627Z,101209.88
2023-01-06T01:11:33.722Z,101168.19
2023-01-06T01:16:31.649Z,101125.81
2023-01-06T01:21:28.683Z,101217.88
2023-01-06T01:26:25.630Z,101215.34
2023-01-06T01:31:22.506Z,101242.97
2023-01-06T01:36:20.006Z,101241.38
2023-01-06T01:41:24.184Z,101231.91
2023-01-06T01:46:25.204Z,101166.00
2023-01-06T01:51:28.297Z,101234.69
2023-01-06T01:56:30.620Z,101233.91
2023-01-06T02:01:28.418Z,101189.78
2023-01-06T02:06:27.455Z,101201.88
2023-01-06T02:11:25.695Z,101244.72
2023-01-06T02:16:30.702Z,101257.13
2023-01-06T02:21:45.807Z,101218.84
2023-01-06T02:27:08.297Z,101250.44
2023-01-06T02:32:15.317Z,101268.97
2023-01-06T02:37:28.841Z,101267.59
2023-01-06T02:42:33.714Z,101248.06
2023-01-06T02:47:34.341Z,101238.00
2023-01-06T02:52:38.872Z,101297.13
2023-01-06T02:57:41.628Z,101289.53
2023-01-06T03:02:42.343Z,101306.88
2023-01-06T03:07:42.431Z,101299.97
2023-01-06T03:12:47.342Z,101283.03
2023-01-06T03:17:46.305Z,101306.19
2023-01-06T03:22:43.769Z,101293.38
2023-01-06T03:27:40.598Z,101303.84
2023-01-06T03:32:47.641Z,101321.44
2023-01-06T03:37:54.176Z,101315.81
2023-01-06T03:43:12.355Z,101332.25
2023-01-06T03:48:22.548Z,101255.41
2023-01-06T03:53:31.140Z,101345.56
2023-01-06T03:58:29.550Z,101307.81
2023-01-06T04:03:27.211Z,101251.56
2023-01-06T04:08:25.650Z,101324.25
2023-01-06T04:13:22.653Z,101351.88
2023-01-06T04:18:19.833Z,101336.50
2023-01-06T04:23:18.369Z,101332.25
2023-01-06T04:28:16.008Z,101347.75
2023-01-06T04:33:14.051Z,101358.38
2023-01-06T04:38:13.598Z,101354.22
2023-01-06T04:43:15.481Z,101368.94
2023-01-06T04:48:13.414Z,101368.97
2023-01-06T04:53:12.012Z,101359.66
2023-01-06T04:58:10.063Z,101372.56
2023-01-06T05:03:06.824Z,101386.47
2023-01-06T05:08:04.381Z,101376.91
2023-01-06T05:13:01.325Z,101343.59
2023-01-06T05:17:58.218Z,101354.25
2023-01-06T05:22:55.053Z,101406.66
2023-01-06T05:27:52.558Z,101420.75
2023-01-06T05:32:49.446Z,101423.44
2023-01-06T05:37:46.330Z,101352.16
2023-01-06T05:42:43.773Z,101375.34
2023-01-06T05:47:41.438Z,101428.88
2023-01-06T05:52:38.377Z,101437.59
2023-01-06T05:57:36.392Z,101420.25
2023-01-06T06:02:33.428Z,101342.22
2023-01-06T06:07:31.046Z,101401.47
2023-01-06T06:12:27.848Z,101440.13
2023-01-06T06:17:24.825Z,101442.69
2023-01-06T06:22:23.202Z,101457.50
2023-01-06T06:27:20.788Z,101469.59
2023-01-06T06:32:17.600Z,101441.31
2023-01-06T06:37:14.442Z,101477.31
2023-01-06T06:42:11.379Z,101497.91
2023-01-06T06:47:09.078Z,101447.38
2023-01-06T06:52:05.939Z,101498.72
2023-01-06T06:57:02.752Z,101462.44
2023-01-06T07:01:59.689Z,101507.75
2023-01-06T07:07:00.594Z,101508.19
2023-01-06T07:11:57.447Z,101474.59
2023-01-06T07:16:54.271Z,101514.72
2023-01-06T07:21:51.065Z,101516.25
2023-01-06T07:26:48.574Z,101517.75
2023-01-06T07:31:45.426Z,101445.47
2023-01-06T07:36:42.322Z,101514.50
2023-01-06T07:41:39.168Z,101410.59
2023-01-06T07:46:42.276Z,101512.13
2023-01-06T07:51:39.180Z,101474.28
2023-01-06T07:56:36.358Z,101494.53
2023-01-06T08:01:33.774Z,101539.13
2023-01-06T08:06:31.401Z,101495.94
2023-01-06T08:11:30.414Z,101539.50
2023-01-06T08:16:28.808Z,101525.53
2023-01-06T08:21:25.828Z,101481.78
2023-01-06T08:26:26.416Z,101540.75
2023-01-06T08:31:26.350Z,101600.56
2023-01-06T08:36:24.094Z,101607.19
2023-01-06T08:41:20.963Z,101546.03
2023-01-06T08:46:19.971Z,101606.84
2023-01-06T08:51:20.100Z,101618.25
2023-01-06T08:56:19.530Z,101612.66
2023-01-06T09:01:17.244Z,101608.47
2023-01-06T09:06:16.218Z,101625.06
2023-01-06T09:11:13.040Z,101599.38
2023-01-06T09:16:11.697Z,101596.28
2023-01-06T09:21:09.065Z,101629.59
2023-01-06T09:26:06.703Z,101629.19
2023-01-06T09:31:03.733Z,101637.47
2023-01-06T09:36:05.545Z,101568.63
2023-01-06T09:41:36.445Z,101530.38
2023-01-06T09:46:40.212Z,101575.44
2023-01-06T09:51:38.460Z,101594.44
2023-01-06T09:56:38.008Z,101604.44
2023-01-06T10:01:39.696Z,101585.03
2023-01-06T10:06:43.893Z,101604.72
2023-01-06T10:11:54.575Z,101526.31
2023-01-06T10:17:36.748Z,101563.81
2023-01-06T10:22:47.245Z,101543.06
2023-01-06T10:27:50.607Z,101567.88
2023-01-06T10:32:52.602Z,101563.31
2023-01-06T10:37:52.832Z,101604.59
2023-01-06T10:43:03.610Z,101525.81
2023-01-06T10:48:12.938Z,101579.63
2023-01-06T10:53:15.027Z,101492.53
2023-01-06T10:58:21.186Z,101590.88
2023-01-06T11:03:32.977Z,101541.69
2023-01-06T11:08:32.969Z,101591.31
2023-01-06T11:13:34.396Z,101576.13
2023-01-06T11:18:34.577Z,101528.09
2023-01-06T11:23:33.982Z,101566.19
2023-01-06T11:28:35.197Z,101558.13
2023-01-06T11:33:35.637Z,101579.00
2023-01-06T11:38:40.342Z,101562.53
2023-01-06T11:43:43.224Z,101571.31
2023-01-06T11:48:43.829Z,101557.88
2023-01-06T11:53:56.764Z,101557.69
2023-01-06T11:59:08.478Z,101548.31
2023-01-06T12:04:15.228Z,101571.09
2023-01-06T12:09:19.705Z,101559.81
2023-01-06T12:14:28.449Z,101552.78
2023-01-06T12:19:35.684Z,101557.53
2023-01-06T12:24:41.036Z,101561.66
2023-01-06T12:29:39.553Z,101542.03
2023-01-06T12:34:38.738Z,101497.59
2023-01-06T12:39:42.648Z,101555.00
2023-01-06T12:44:45.754Z,101528.81
2023-01-06T12:49:48.077Z,101574.78
2023-01-06T12:54:52.192Z,101582.84
2023-01-06T13:00:03.761Z,101564.16
2023-01-06T13:05:35.241Z,101560.75
2023-01-06T13:10:37.588Z,101572.13
2023-01-06T13:15:39.296Z,101577.75
2023-01-06T13:20:42.161Z,101548.50
2023-01-06T13:25:53.976Z,101573.03
2023-01-06T13:31:32.577Z,101619.63
2023-01-06T13:36:55.269Z,101600.22
2023-01-06T13:41:55.914Z,101615.72
2023-01-06T13:46:59.061Z,101641.34
2023-01-06T13:51:57.523Z,101596.91
2023-01-06T13:57:36.480Z,101652.59
2023-01-06T14:03:17.905Z,101644.97
2023-01-06T14:08:21.927Z,101665.25
2023-01-06T14:13:22.557Z,101667.25
2023-01-06T14:18:35.077Z,101677.44
2023-01-06T14:23:33.808Z,101675.16
2023-01-06T14:28:32.875Z,101648.03
2023-01-06T14:33:35.566Z,101703.69
2023-01-06T14:38:40.955Z,101686.69
2023-01-06T14:43:45.321Z,101706.03
2023-01-06T14:48:49.552Z,101706.78
2023-01-06T14:53:53.218Z,101703.22
2023-01-06T14:58:50.033Z,101703.09
2023-01-06T15:03:56.373Z,101656.31
2023-01-06T15:08:54.938Z,101712.13
2023-01-06T15:13:51.796Z,101734.97
2023-01-06T15:18:52.375Z,101740.75
2023-01-06T15:23:51.316Z,101744.81
2023-01-06T15:29:00.679Z,101753.19
2023-01-06T15:34:05.638Z,101715.34
2023-01-06T15:39:05.687Z,101774.19
2023-01-06T15:44:20.316Z,101717.16
2023-01-06T15:49:25.946Z,101773.03
2023-01-06T15:54:23.361Z,101790.38
2023-01-06T15:59:21.707Z,101781.94
2023-01-06T16:04:21.031Z,101805.31
2023-01-06T16:09:35.294Z,101789.75
2023-01-06T16:14:35.342Z,101759.94
2023-01-06T16:19:33.389Z,101780.47
2023-01-06T16:24:30.843Z,101814.72
2023-01-06T16:29:32.602Z,101783.13
2023-01-06T16:34:31.695Z,101827.91
2023-01-06T16:39:30.341Z,101831.81
2023-01-06T16:44:28.984Z,101772.88
2023-01-06T16:49:26.154Z,101818.91
2023-01-06T16:54:35.305Z,101797.00
2023-01-06T16:59:34.975Z,101835.88
2023-01-06T17:04:31.828Z,101813.28
2023-01-06T17:09:30.187Z,101868.63
2023-01-06T17:14:27.743Z,101875.75
2023-01-06T17:19:28.934Z,101851.03
2023-01-06T17:24:29.597Z,101840.34
2023-01-06T17:29:35.721Z,101898.75
2023-01-06T17:34:37.295Z,101866.81
2023-01-06T17:39:40.088Z,101872.06
2023-01-06T17:44:39.841Z,101866.47
2023-01-06T17:49:37.599Z,101955.75
2023-01-06T17:54:49.996Z,101940.22
2023-01-06T17:59:55.070Z,101979.69
2023-01-06T18:04:52.245Z,101916.75
2023-01-06T18:09:52.586Z,101970.81
2023-01-06T18:14:50.194Z,101973.59
2023-01-06T18:19:47.644Z,101985.69
2023-01-06T18:24:47.099Z,101972.63
2023-01-06T18:29:44.819Z,101978.25
2023-01-06T18:34:49.140Z,101980.56
2023-01-06T18:39:53.916Z,101988.19
2023-01-06T18:45:03.462Z,101985.19
2023-01-06T18:50:33.310Z,101970.00
2023-01-06T18:55:36.452Z,101968.06
2023-01-06T19:00:39.437Z,101947.41
2023-01-06T19:05:37.033Z,101914.91
2023-01-06T19:10:34.564Z,101943.84
2023-01-06T19:15:32.358Z,101981.94
2023-01-06T19:20:34.577Z,101983.09
2023-01-06T19:25:40.904Z,101922.34
2023-01-06T19:30:44.910Z,101950.94
2023-01-06T19:35:50.024Z,101981.34
2023-01-06T19:40:50.191Z,101971.38
2023-01-06T19:45:50.731Z,101971.66
2023-01-06T19:50:49.965Z,101993.44
2023-01-06T19:55:48.024Z,101986.69
2023-01-06T20:00:47.614Z,102002.69
2023-01-06T20:05:45.413Z,102009.06
2023-01-06T20:10:42.428Z,101955.88
2023-01-06T20:15:40.311Z,101972.41
2023-01-06T20:20:37.189Z,101969.19
2023-01-06T20:25:34.128Z,101954.72
2023-01-06T20:30:30.985Z,102009.31
2023-01-06T20:35:28.803Z,102026.09
2023-01-06T20:40:25.682Z,101924.47
2023-01-06T20:45:22.600Z,101968.34
2023-01-06T20:50:20.218Z,101934.88
2023-01-06T20:55:17.792Z,102005.84
2023-01-06T21:00:15.801Z,101984.47
2023-01-06T21:05:13.106Z,101995.59
2023-01-06T21:10:10.125Z,102022.47
2023-01-06T21:15:09.481Z,101963.91
2023-01-06T21:20:08.075Z,102042.72
2023-01-06T21:25:05.735Z,102011.81
2023-01-06T21:30:02.665Z,102021.31
2023-01-06T21:35:00.172Z,102051.78
2023-01-06T21:39:57.222Z,102031.78
2023-01-06T21:44:54.024Z,102027.50
2023-01-06T21:49:50.789Z,102040.66
2023-01-06T21:54:48.766Z,102041.75
2023-01-06T21:59:45.636Z,102048.81
2023-01-06T22:04:42.413Z,102031.66
2023-01-06T22:09:41.990Z,101967.16
2023-01-06T22:14:39.916Z,102044.22
2023-01-06T22:19:37.553Z,102075.59
2023-01-06T22:24:35.398Z,102061.81
2023-01-06T22:29:32.404Z,102030.75
2023-01-06T22:34:30.068Z,101965.97
2023-01-06T22:39:27.093Z,102028.19
2023-01-06T22:44:23.900Z,102001.31
2023-01-06T22:49:20.797Z,102026.28
2023-01-06T22:54:18.598Z,102042.75
2023-01-06T22:59:15.392Z,102030.75
2023-01-06T23:04:14.202Z,102057.59
2023-01-06T23:09:11.180Z,102033.38
2023-01-06T23:14:10.135Z,102049.84
2023-01-06T23:19:07.914Z,102021.53
2023-01-06T23:24:06.240Z,101958.56
2023-01-06T23:29:03.590Z,102002.56
2023-01-06T23:34:04.687Z,102032.03
2023-01-06T23:39:03.844Z,102046.69
2023-01-06T23:44:01.421Z,102044.97
2023-01-06T23:48:58.750Z,101986.41
2023-01-06T23:53:56.461Z,102064.09
2023-01-06T23:58:57.217Z,102078.97
